createdAt,value
2022-09-27T00:11:06.436Z,1.80
2022-09-27T00:25:06.398Z,1.70
2022-09-27T00:39:06.757Z,2.00
2022-09-27T00:53:06.415Z,1.70
2022-09-27T01:07:06.425Z,1.70
2022-09-27T01:21:06.424Z,1.45
2022-09-27T01:35:06.466Z,1.65
2022-09-27T01:49:06.498Z,1.40
2022-09-27T02:03:06.564Z,1.30
2022-09-27T02:17:06.576Z,1.50
2022-09-27T02:31:06.686Z,1.45
2022-09-27T02:45:06.580Z,1.35
2022-09-27T02:59:06.635Z,1.10
2022-09-27T03:13:06.594Z,0.90
2022-09-27T03:27:06.716Z,1.30
2022-09-27T03:41:06.718Z,1.00
2022-09-27T03:55:06.913Z,1.40
2022-09-27T04:09:06.854Z,0.90
2022-09-27T04:23:06.819Z,0.80
2022-09-27T04:37:06.829Z,0.80
2022-09-27T04:51:06.931Z,1.00
2022-09-27T05:05:06.942Z,1.30
2022-09-27T05:20:06.980Z,0.80
2022-09-27T05:35:07.000Z,1.10
2022-09-27T05:50:18.248Z,0.90
2022-09-27T06:06:07.042Z,2.10
2022-09-27T06:21:07.173Z,4.30
2022-09-27T06:36:32.802Z,4.30
2022-09-27T06:51:07.149Z,4.40
2022-09-27T07:06:07.284Z,4.40
2022-09-27T07:21:07.216Z,5.95
2022-09-27T07:36:07.239Z,4.80
2022-09-27T08:05:07.236Z,4.40
2022-09-27T08:20:07.371Z,6.50
2022-09-27T08:35:07.415Z,26.90
2022-09-27T08:50:07.466Z,22.80
2022-09-27T09:05:07.502Z,17.80
2022-09-27T09:20:07.509Z,17.10
2022-09-27T09:35:07.556Z,13.80
2022-09-27T09:50:07.542Z,14.80
2022-09-27T10:05:07.980Z,13.10
2022-09-27T10:20:07.549Z,10.60
2022-09-27T10:35:07.553Z,7.70
2022-09-27T10:45:47.235Z,9.00
2022-09-27T11:00:47.134Z,7.20
2022-09-27T11:15:47.337Z,7.70
2022-09-27T11:30:47.278Z,6.10
2022-09-27T11:46:10.622Z,6.60
2022-09-27T12:00:47.880Z,5.90
2022-09-27T12:15:47.683Z,5.90
2022-09-27T12:30:47.625Z,12.70
2022-09-27T12:45:47.597Z,12.30
2022-09-27T13:00:47.693Z,12.20
2022-09-27T13:15:47.950Z,10.05
2022-09-27T13:30:47.997Z,10.60
2022-09-27T13:45:47.979Z,9.40
2022-09-27T14:00:48.020Z,7.10
2022-09-27T14:15:48.165Z,7.30
2022-09-27T14:30:48.057Z,5.55
2022-09-27T14:45:48.055Z,5.70
2022-09-27T15:00:48.052Z,4.80
2022-09-27T15:15:48.080Z,4.90
2022-09-27T15:30:48.084Z,4.50
2022-09-27T15:45:48.088Z,4.05
2022-09-27T16:00:49.392Z,3.50
2022-09-27T16:15:48.667Z,4.30
2022-09-27T16:30:48.360Z,3.40
2022-09-27T16:45:48.140Z,3.10
2022-09-27T17:01:48.234Z,3.00
2022-09-27T17:16:48.201Z,4.30
2022-09-27T17:31:48.341Z,4.60
2022-09-27T17:45:48.280Z,2.70
2022-09-27T17:59:48.517Z,3.10
2022-09-27T18:13:48.507Z,3.00
2022-09-27T18:27:48.505Z,2.40
2022-09-27T18:41:48.608Z,2.60
2022-09-27T18:55:48.507Z,3.20
2022-09-27T19:09:49.599Z,2.20
2022-09-27T19:23:49.215Z,2.60
2022-09-27T19:37:50.395Z,2.70
2022-09-27T19:51:49.853Z,2.30
2022-09-27T20:05:48.518Z,1.70
2022-09-27T20:19:49.307Z,1.90
2022-09-27T20:33:48.717Z,3.20
2022-09-27T20:47:49.213Z,2.10
2022-09-27T21:01:48.785Z,1.90
2022-09-27T21:15:48.718Z,2.30
2022-09-27T21:29:48.610Z,1.90
2022-09-27T21:43:48.632Z,1.70
2022-09-27T21:57:48.675Z,1.50
2022-09-27T22:11:48.637Z,1.10
2022-09-27T22:25:48.635Z,1.80
2022-09-27T22:39:48.640Z,1.20
2022-09-27T22:53:48.651Z,1.10
2022-09-27T23:07:48.690Z,1.00
2022-09-27T23:21:48.687Z,1.10
2022-09-27T23:35:48.691Z,0.80
2022-09-27T23:49:48.708Z,0.80
